METAR Nordic - 12 Dec 2017 - 2348 UTC - RocketRoute WX - rrwx.com
EKYT 122333Z AUTO 23018KT 9999NDV DZ FEW034/// SCT060/// 03/02 Q0999 R26L/190195 EKAH 122320Z AUTO 21006KT 170V270 9999NDV FEW011/// SCT037/// 02/01 Q1002 R10R/09//95 EKBI 122320Z AUTO 24013KT 9999NDV SCT032/// BKN055/// 03/00 Q1003 R09/71//95 EKRN 122320Z AUTO 25018KT 9999NDV SCT020/// BKN063/// 04/00 Q1007 EKEB 122320Z AUTO 21010KT 9999NDV FEW032/// SCT043/// 04/01 Q1003 EKKA 122320Z AUTO 21009KT 9999NDV SCT050/// 02/02 Q1001 R27L/790294 EKCH 122320Z 23013KT CAVOK 03/01 Q1005 R04L/320157 R04R/320163 R12/320157 NOSIG EKOD   EKRK 122320Z AUTO 22012KT 9999NDV FEW070/// 01/M00 Q1004 R99/720192 EKSP 122331Z 23013KT 200V260 9999 -SHRA FEW010 SCT020CB SCT027 02/01 Q1005 EKVD 122320Z AUTO 22014KT //// ///////// 02/01 Q1004 ESTA 122320Z AUTO 23012KT 9999 BKN036/// OVC046/// 02/// Q1002 REUP ESNZ   ESGP   ESGG 122320Z 19007KT 4700 -SN BKN002 BKN004 OVC006 M01/M02 Q0998 R21/19//95 ESMT 122320Z AUTO 25017KT 9999 FEW020/// OVC064/// 03/01 Q1001 ESMQ 122320Z AUTO 26008KT 9999 NCD M02/M03 Q1002 ESNQ 122320Z AUTO 36007KT 3200 -SN VV017 M07/M08 Q0985 ESPA 122320Z AUTO 33012KT 2500 -UP VV017 M04/M05 Q0981 ESMS 122320Z 23009KT CAVOK 02/M00 Q1005 R17/290295 ESSL 122320Z AUTO 26010KT 9999 OVC015/// M02/M03 Q0998 ESSA 122320Z 26006KT CAVOK M05/M06 Q0994 R01L/520175 R01R/520178 R08/520172 NOSIG ESSB 122320Z AUTO 26008KT 9999 FEW009/// SCT012/// M03/M04 Q0995 ESKN 122320Z 27009KT CAVOK M06/M07 Q0997 R26/520139 ESNU 122320Z 30012KT CAVOK M03/M05 Q0984 R14/75//39 ESSV 122320Z AUTO 28017KT 9999 SCT017/// OVC022/// 01/M03 Q0998 ENAN 122320Z AUTO 20006KT 9999 NCD M06/M09 Q0989 ENAT 122250Z AUTO 15006KT 9999 OVC021/// M02/M07 Q0992 RMK WIND 700FT 17009KT ENHF 122320Z 03004KT 340V120 CAVOK M04/M08 Q0990 RMK WIND 1254FT 18008KT ENDU 122320Z AUTO 00000KT 9999 NCD M19/M21 Q0990 RMK WIND 1100FT 14002KT WIND 2200FT 09008KT ENBO 122250Z 07012KT CAVOK M03/M06 Q0989 NOSIG ENEV 122250Z 36003KT CAVOK M13/M15 Q0990 RMK WIND 1400FT 10007KT ENBR 122250Z 13008KT 9999 SCT018 BKN035 01/M03 Q0994 RMK WIND 1200FT 13017KT ENFL 122320Z AUTO 09015KT 9999NDV -SHRA FEW012/// OVC025/// 01/M03 Q0992 ENGM 122320Z 17001KT CAVOK M13/M15 Q0995 ENHD 122320Z AUTO 12014KT 9999 FEW047/// SCT160/// 02/00 Q0994 ENCN 122320Z AUTO 06004KT 9999 FEW009/// OVC028/// M04/M04 Q0997 ENTC 122250Z 11003KT CAVOK M08/M10 Q0991 RMK WIND 2600FT 18003KT ENFB 122320Z AUTO 19023KT 9999NDV FEW027/// SCT038/// BKN048/// 06/00 Q0989 W///S4 ENSB 122250Z 10010KT 9999 BKN035 M03/M09 Q0995 RMK WIND 1400FT 10015KT ENNK   ENRO 122320Z AUTO VRB02KT 9999NDV FEW070/// M18/M20 Q0989 ENRY 122320Z AUTO 02003KT 9999NDV NCD M11/M12 Q0997 ENZV 122250Z 12009KT 9999 FEW030 SCT160 00/M02 Q0995 ENVA 122320Z 09006KT 0700 -SN SCT002 BKN006 M05/M06 Q0989 RMK WIND 670FT 21010KT ENAL 122320Z AUTO 19009KT 9999 SCT039/// BKN046/// BKN070/// 04/M02 Q0990 EFET 122320Z AUTO 36010KT 5000 -SG OVC031 M07/M08 Q0986 EFTP 122320Z AUTO 26011KT 9999 FEW007 BKN009 BKN011 M03/M04 Q0984 EFTU 122320Z AUTO 29009KT 9999 -SN SCT007/// OVC026/// M01/M01 Q0987 BIAR 122300Z 29005KT 8000 -RA BKN019 OVC025 03/00 Q0977 R01/790050 RMK RWY SANDED BIEG 122300Z VRB03KT 9999 -RA FEW020 SCT030 BKN055 04/00 Q0977 R04/790195 BIKF 122330Z 11006KT 9999 FEW029 BKN140 01/M00 Q0974 R19/190045 BIRK 122300Z 09007KT 9999 FEW032 SCT052 01/M01 Q0975 R19/790140 BGJN 122250Z 10011KT 9999 SCT150 M04/M12 Q0988 BGSF 122250Z AUTO 07003KT 2800NDV -SN SCT016/// BKN025/// OVC037/// M05/M06 Q0990 BGKK 122250Z AUTO 07014KT 020V100 9999NDV FEW064/// SCT190/// 02/M08 Q0981 BGBW 122250Z AUTO 06003KT 9999NDV FEW085/// BKN100/// M03/M06 Q0991 BGGH 122250Z AUTO 29009KT 6000NDV -FZRA BKN021/// M04/M06 Q0995 BGTL 122258Z AUTO 09009KT 9999 CLR M17/M19 A2912 RMK AO2 SLP851 T11681192 BGSS  

RocketRoute WX - rrwx.com weather for pilots